Time;durP1;ratioP1;P1;durP2;ratioP2;P2;SDS_P1;SDS_P2;PMS_P1;PMS_P2;Temp;Humidity;BMP_temperature;BMP_pressure;BME280_temperature;BME280_humidity;BME280_pressure;Samples;Min_cycle;Max_cycle;Signal;HPM_P1;HPM_P2
2021/12/11 00:00:14;;;;;;;;;;;7.00;83.30;;;;;;5043358;28;82112;-64
2021/12/11 00:02:40;;;;;;;;;;;6.90;83.20;;;;;;5040111;28;82493;-64
2021/12/11 00:05:06;;;;;;;;;;;7.00;83.20;;;;;;5044802;28;83527;-64
2021/12/11 00:07:32;;;;;;;;;;;6.90;83.30;;;;;;5043242;27;81340;-64
2021/12/11 00:10:07;;;;;;;;;;;7.00;83.30;;;;;;5043291;28;82100;-64
2021/12/11 00:12:34;;;;;;;;;;;7.00;83.10;;;;;;5042981;28;82915;-64
2021/12/11 00:15:05;;;;;;;;;;;6.90;83.10;;;;;;5076280;27;83073;-64
2021/12/11 00:17:31;;;;;;;;;;;6.90;83.10;;;;;;5042144;28;85104;-64
2021/12/11 00:19:57;;;;;;;;;;;6.90;83.20;;;;;;5047208;28;83177;-63
2021/12/11 00:22:25;;;;;;;;;;;6.90;83.30;;;;;;5043449;28;82082;-63
2021/12/11 00:24:50;;;;;;;;;;;6.90;83.20;;;;;;5041957;28;82212;-64
2021/12/11 00:27:26;;;;;;;;;;;6.90;83.10;;;;;;5042974;28;82079;-64
2021/12/11 00:29:52;;;;;;;;;;;6.80;83.30;;;;;;5044311;27;82081;-64
2021/12/11 00:32:28;;;;;;;;;;;6.80;83.20;;;;;;5044676;28;81827;-63
2021/12/11 00:34:55;;;;;;;;;;;6.80;83.20;;;;;;5042279;28;82115;-64
2021/12/11 00:37:23;;;;;;;;;;;6.80;83.20;;;;;;5040770;28;83418;-63
2021/12/11 00:39:50;;;;;;;;;;;6.80;83.20;;;;;;5041534;28;85346;-63
2021/12/11 00:42:16;;;;;;;;;;;6.80;83.30;;;;;;5044318;28;82097;-64
2021/12/11 00:44:47;;;;;;;;;;;6.80;83.40;;;;;;5041703;28;83142;-64
2021/12/11 00:47:14;;;;;;;;;;;6.80;83.20;;;;;;5042662;28;82105;-64
2021/12/11 00:49:58;;;;;;;;;;;6.70;83.20;;;;;;5040547;28;82122;-63
2021/12/11 00:52:31;;;;;;;;;;;6.70;83.50;;;;;;5042698;27;82754;-64
2021/12/11 00:54:57;;;;;;;;;;;6.70;83.40;;;;;;5039467;28;83825;-63
2021/12/11 00:57:23;;;;;;;;;;;6.70;83.50;;;;;;5044413;28;83697;-63
2021/12/11 01:00:09;;;;;;;;;;;6.70;83.20;;;;;;5043948;27;82113;-63
2021/12/11 01:02:34;;;;;;;;;;;6.70;83.40;;;;;;5040208;27;82981;-63
2021/12/11 01:05:00;;;;;;;;;;;6.70;83.40;;;;;;5041382;28;83049;-64
2021/12/11 01:07:31;;;;;;;;;;;6.70;83.40;;;;;;5039336;28;82131;-63
2021/12/11 01:10:00;;;;;;;;;;;6.70;83.60;;;;;;5039871;28;83358;-63
2021/12/11 01:12:34;;;;;;;;;;;6.60;83.50;;;;;;5041748;28;84454;-64
2021/12/11 01:15:13;;;;;;;;;;;6.60;83.50;;;;;;5043218;28;83759;-63
2021/12/11 01:18:35;;;;;;;;;;;6.60;83.60;;;;;;5041110;28;82122;-63
2021/12/11 01:20:37;;;;;;;;;;;6.60;83.50;;;;;;5040553;28;82393;-63
2021/12/11 01:23:05;;;;;;;;;;;6.50;83.60;;;;;;5043678;28;83152;-63
2021/12/11 01:25:31;;;;;;;;;;;6.60;83.30;;;;;;5046256;28;82148;-63
2021/12/11 01:28:01;;;;;;;;;;;6.60;83.30;;;;;;5050045;28;83024;-63
2021/12/11 01:30:34;;;;;;;;;;;6.50;83.50;;;;;;5043900;28;84134;-64
2021/12/11 01:33:00;;;;;;;;;;;6.50;83.50;;;;;;5044845;28;82581;-63
2021/12/11 01:35:26;;;;;;;;;;;6.50;83.60;;;;;;5045667;28;82061;-64
2021/12/11 01:37:59;;;;;;;;;;;6.50;83.50;;;;;;5045998;28;82502;-63
2021/12/11 01:40:27;;;;;;;;;;;6.50;83.50;;;;;;5042342;28;83119;-63
2021/12/11 01:42:53;;;;;;;;;;;6.50;83.60;;;;;;5044525;28;82103;-63
2021/12/11 01:45:19;;;;;;;;;;;6.40;83.70;;;;;;5043552;28;82531;-63
2021/12/11 01:47:47;;;;;;;;;;;6.40;83.80;;;;;;5045469;28;83869;-63
2021/12/11 01:50:26;;;;;;;;;;;6.50;83.50;;;;;;5047055;28;82228;-65
2021/12/11 01:53:10;;;;;;;;;;;6.40;83.70;;;;;;5043229;28;83277;-64
2021/12/11 01:55:41;;;;;;;;;;;6.40;83.80;;;;;;5046110;27;83008;-64
2021/12/11 01:58:09;;;;;;;;;;;6.40;83.80;;;;;;5045104;28;84490;-63
2021/12/11 02:00:55;;;;;;;;;;;6.40;83.80;;;;;;5045754;28;82573;-63
2021/12/11 02:03:23;;;;;;;;;;;6.40;83.70;;;;;;5045773;28;82064;-63
2021/12/11 02:05:49;;;;;;;;;;;6.40;83.70;;;;;;5042360;28;82282;-63
2021/12/11 02:08:16;;;;;;;;;;;6.40;83.50;;;;;;5045400;28;83019;-64
2021/12/11 02:10:53;;;;;;;;;;;6.40;83.40;;;;;;5046965;28;82188;-63
2021/12/11 02:13:28;;;;;;;;;;;6.30;83.50;;;;;;5040496;28;84376;-63
2021/12/11 02:15:54;;;;;;;;;;;6.40;83.70;;;;;;5042455;28;82705;-63
2021/12/11 02:18:22;;;;;;;;;;;6.30;83.60;;;;;;5046621;28;82126;-63
2021/12/11 02:20:51;;;;;;;;;;;6.30;83.50;;;;;;5041720;28;84773;-63
2021/12/11 02:23:17;;;;;;;;;;;6.30;83.70;;;;;;5045561;28;82206;-63
2021/12/11 02:25:46;;;;;;;;;;;6.30;83.70;;;;;;5045690;28;82504;-63
2021/12/11 02:28:15;;;;;;;;;;;6.30;83.70;;;;;;5045747;28;82688;-63
2021/12/11 02:30:40;;;;;;;;;;;6.30;83.70;;;;;;5042431;28;82104;-63
2021/12/11 02:33:22;;;;;;;;;;;6.30;83.40;;;;;;5046450;28;82218;-63
2021/12/11 02:35:47;;;;;;;;;;;6.30;83.40;;;;;;5042539;28;82202;-63
2021/12/11 02:38:13;;;;;;;;;;;6.30;83.60;;;;;;5044249;28;82462;-63
2021/12/11 02:40:43;;;;;;;;;;;6.20;83.70;;;;;;5043870;28;83239;-63
2021/12/11 02:43:08;;;;;;;;;;;6.30;83.50;;;;;;5045542;28;82118;-63
2021/12/11 02:45:37;;;;;;;;;;;6.20;83.50;;;;;;5044697;28;84752;-63
2021/12/11 02:48:08;;;;;;;;;;;6.20;83.50;;;;;;5041257;28;84460;-64
2021/12/11 02:50:40;;;;;;;;;;;6.20;83.40;;;;;;5041377;28;82089;-63
2021/12/11 02:53:14;;;;;;;;;;;6.20;83.60;;;;;;5045852;28;82801;-63
2021/12/11 02:55:58;;;;;;;;;;;6.20;83.40;;;;;;5045203;28;82652;-63
2021/12/11 02:58:28;;;;;;;;;;;6.20;83.50;;;;;;5045542;28;82745;-63
2021/12/11 03:01:01;;;;;;;;;;;6.20;83.30;;;;;;5045723;28;82909;-63
2021/12/11 03:03:31;;;;;;;;;;;6.20;83.60;;;;;;5043733;28;81407;-63
2021/12/11 03:06:05;;;;;;;;;;;6.10;83.30;;;;;;5044892;28;82221;-64
2021/12/11 03:08:31;;;;;;;;;;;6.10;83.30;;;;;;5041599;28;84729;-63
2021/12/11 03:10:59;;;;;;;;;;;6.10;83.30;;;;;;5045550;28;84573;-63
2021/12/11 03:13:27;;;;;;;;;;;6.10;83.50;;;;;;5041544;28;83064;-63
2021/12/11 03:15:53;;;;;;;;;;;6.10;83.20;;;;;;5045449;28;83151;-64
2021/12/11 03:18:19;;;;;;;;;;;6.10;83.20;;;;;;5047439;28;82095;-63
2021/12/11 03:20:45;;;;;;;;;;;6.10;83.60;;;;;;5045464;28;82679;-63
2021/12/11 03:23:11;;;;;;;;;;;6.10;83.50;;;;;;5045419;28;82895;-63
2021/12/11 03:25:38;;;;;;;;;;;6.10;83.10;;;;;;5043869;28;82682;-63
2021/12/11 03:28:05;;;;;;;;;;;6.10;82.90;;;;;;5045941;28;82248;-63
2021/12/11 03:30:33;;;;;;;;;;;6.10;83.00;;;;;;5045662;28;82184;-63
2021/12/11 03:33:04;;;;;;;;;;;6.10;83.00;;;;;;5042363;28;82078;-63
2021/12/11 03:35:30;;;;;;;;;;;6.10;82.90;;;;;;5041092;28;85480;-63
2021/12/11 03:37:56;;;;;;;;;;;6.10;83.00;;;;;;5042715;28;82164;-63
2021/12/11 03:40:21;;;;;;;;;;;6.00;83.30;;;;;;5047926;28;82739;-63
2021/12/11 03:42:48;;;;;;;;;;;6.00;83.40;;;;;;5042935;27;83713;-63
2021/12/11 03:45:16;;;;;;;;;;;6.00;83.60;;;;;;5045206;28;82996;-64
2021/12/11 03:47:48;;;;;;;;;;;6.00;83.60;;;;;;5043491;28;82743;-64
2021/12/11 03:50:16;;;;;;;;;;;6.00;83.30;;;;;;5042834;28;82151;-63
2021/12/11 03:52:42;;;;;;;;;;;6.00;83.10;;;;;;5041403;28;82603;-64
2021/12/11 03:55:09;;;;;;;;;;;6.00;83.50;;;;;;5040380;28;83362;-64
2021/12/11 03:57:37;;;;;;;;;;;6.00;83.40;;;;;;5043822;28;83162;-64
2021/12/11 04:00:04;;;;;;;;;;;5.90;83.70;;;;;;5045964;28;83655;-63
2021/12/11 04:02:34;;;;;;;;;;;5.90;83.80;;;;;;5041467;28;82098;-64
2021/12/11 04:05:02;;;;;;;;;;;5.90;83.70;;;;;;5043950;28;82499;-63
2021/12/11 04:07:33;;;;;;;;;;;5.90;83.80;;;;;;5041487;28;82725;-64
2021/12/11 04:09:58;;;;;;;;;;;6.00;83.80;;;;;;5042846;28;82103;-64
2021/12/11 04:12:25;;;;;;;;;;;5.90;83.50;;;;;;5043529;28;82149;-64
2021/12/11 04:14:51;;;;;;;;;;;5.90;83.30;;;;;;5042584;28;82086;-64
2021/12/11 04:17:18;;;;;;;;;;;6.00;83.30;;;;;;5043723;28;81420;-63
2021/12/11 04:19:44;;;;;;;;;;;5.90;83.40;;;;;;5041804;28;83561;-64
2021/12/11 04:22:10;;;;;;;;;;;5.90;83.80;;;;;;5044488;28;82972;-63
2021/12/11 04:24:37;;;;;;;;;;;5.90;83.40;;;;;;5041642;28;83019;-64
2021/12/11 04:27:04;;;;;;;;;;;5.90;83.60;;;;;;5041194;28;82580;-63
2021/12/11 04:29:30;;;;;;;;;;;5.90;83.50;;;;;;5039932;28;82118;-64
2021/12/11 04:31:57;;;;;;;;;;;5.90;83.50;;;;;;5041071;28;82172;-63
2021/12/11 04:34:23;;;;;;;;;;;5.90;83.60;;;;;;5040390;28;82674;-63
2021/12/11 04:36:50;;;;;;;;;;;5.90;83.60;;;;;;5040910;28;82058;-64
2021/12/11 04:39:18;;;;;;;;;;;5.80;83.50;;;;;;5040749;28;82724;-64
2021/12/11 04:41:59;;;;;;;;;;;5.80;83.60;;;;;;5044115;28;83570;-63
2021/12/11 04:44:31;;;;;;;;;;;5.80;83.70;;;;;;5044319;28;82898;-64
2021/12/11 04:46:56;;;;;;;;;;;5.80;83.50;;;;;;5043381;28;82946;-63
2021/12/11 04:52:33;;;;;;;;;;;5.80;83.90;;;;;;5020660;28;84460;-64
2021/12/11 04:55:28;;;;;;;;;;;5.80;83.50;;;;;;5041189;28;84419;-64
2021/12/11 04:58:10;;;;;;;;;;;5.80;83.30;;;;;;5043752;28;82094;-65
2021/12/11 05:10:52;;;;;;;;;;;5.80;83.70;;;;;;5040535;28;82102;-64
2021/12/11 05:13:17;;;;;;;;;;;5.80;83.90;;;;;;5041334;28;83449;-64
2021/12/11 05:15:44;;;;;;;;;;;5.80;83.70;;;;;;5041813;28;83134;-64
2021/12/11 05:18:11;;;;;;;;;;;5.80;83.60;;;;;;5040245;28;82167;-64
2021/12/11 05:20:40;;;;;;;;;;;5.70;83.90;;;;;;5041419;28;82140;-64
2021/12/11 05:23:06;;;;;;;;;;;5.70;83.90;;;;;;5043702;28;83463;-64
2021/12/11 05:25:32;;;;;;;;;;;5.70;83.70;;;;;;5041170;28;82818;-63
2021/12/11 05:27:57;;;;;;;;;;;5.70;83.80;;;;;;5041570;28;84138;-64
2021/12/11 05:30:29;;;;;;;;;;;5.70;84.00;;;;;;5041624;28;82132;-64
2021/12/11 05:32:56;;;;;;;;;;;5.70;83.50;;;;;;5039630;28;82336;-64
2021/12/11 05:35:22;;;;;;;;;;;5.70;83.60;;;;;;5041861;28;83027;-64
2021/12/11 05:37:48;;;;;;;;;;;5.70;83.80;;;;;;5038677;28;83769;-64
2021/12/11 05:40:15;;;;;;;;;;;5.70;84.00;;;;;;5041235;28;84689;-64
2021/12/11 05:42:41;;;;;;;;;;;5.70;83.90;;;;;;5039451;28;87722;-64
2021/12/11 05:45:07;;;;;;;;;;;5.70;83.70;;;;;;5040116;28;82213;-64
2021/12/11 05:47:33;;;;;;;;;;;5.70;83.90;;;;;;5039206;28;82680;-64
2021/12/11 05:49:58;;;;;;;;;;;5.60;84.10;;;;;;5038902;28;82589;-64
2021/12/11 05:52:24;;;;;;;;;;;5.60;84.10;;;;;;5042813;28;82111;-64
2021/12/11 05:54:51;;;;;;;;;;;5.60;84.00;;;;;;5040462;28;84584;-64
2021/12/11 05:57:18;;;;;;;;;;;5.60;83.90;;;;;;5039060;28;81509;-64
2021/12/11 05:59:44;;;;;;;;;;;5.70;84.00;;;;;;5042748;28;82152;-64
2021/12/11 06:02:15;;;;;;;;;;;5.60;84.20;;;;;;5042212;28;85000;-64
2021/12/11 06:04:42;;;;;;;;;;;5.60;83.80;;;;;;5042145;28;84053;-64
2021/12/11 06:07:09;;;;;;;;;;;5.60;83.90;;;;;;5046262;28;83943;-64
2021/12/11 06:09:35;;;;;;;;;;;5.60;83.80;;;;;;5045861;28;85414;-64
2021/12/11 06:12:03;;;;;;;;;;;5.60;83.80;;;;;;5048560;28;82122;-64
2021/12/11 06:14:29;;;;;;;;;;;5.60;83.70;;;;;;5043411;28;82712;-64
2021/12/11 06:16:56;;;;;;;;;;;5.60;83.80;;;;;;5042943;28;82130;-64
2021/12/11 06:19:22;;;;;;;;;;;5.60;83.70;;;;;;5043340;28;83690;-64
2021/12/11 06:21:50;;;;;;;;;;;5.60;83.80;;;;;;5043883;28;81812;-64
2021/12/11 06:24:16;;;;;;;;;;;5.60;84.00;;;;;;5042483;28;82531;-64
2021/12/11 06:26:42;;;;;;;;;;;5.60;83.60;;;;;;5041780;28;83061;-64
2021/12/11 06:29:07;;;;;;;;;;;5.60;83.70;;;;;;5041661;28;84024;-64
2021/12/11 06:31:33;;;;;;;;;;;5.60;83.60;;;;;;5043793;28;82059;-64
2021/12/11 06:33:58;;;;;;;;;;;5.60;83.60;;;;;;5047543;28;82230;-64
2021/12/11 06:36:24;;;;;;;;;;;5.60;83.80;;;;;;5046153;28;82066;-64
2021/12/11 06:38:52;;;;;;;;;;;5.60;83.90;;;;;;5044996;28;83573;-64
2021/12/11 06:41:21;;;;;;;;;;;5.50;84.00;;;;;;5044048;28;82480;-63
2021/12/11 06:43:47;;;;;;;;;;;5.60;83.80;;;;;;5042890;28;83076;-64
2021/12/11 06:46:12;;;;;;;;;;;5.50;84.00;;;;;;5042137;28;84161;-63
2021/12/11 06:48:38;;;;;;;;;;;5.60;83.60;;;;;;5042250;28;83182;-64
2021/12/11 06:51:04;;;;;;;;;;;5.60;83.80;;;;;;5043504;28;82210;-64
2021/12/11 06:53:36;;;;;;;;;;;5.50;84.10;;;;;;5043064;28;83058;-64
2021/12/11 06:56:02;;;;;;;;;;;5.50;83.70;;;;;;5046477;28;83604;-64
2021/12/11 06:58:28;;;;;;;;;;;5.50;83.80;;;;;;5043362;28;82519;-64
2021/12/11 07:00:54;;;;;;;;;;;5.50;83.70;;;;;;5044596;28;82961;-63
2021/12/11 07:03:20;;;;;;;;;;;5.50;83.90;;;;;;5044810;28;82087;-64
2021/12/11 07:05:45;;;;;;;;;;;5.50;83.80;;;;;;5046137;28;82468;-63
2021/12/11 07:08:16;;;;;;;;;;;5.50;83.80;;;;;;5046209;28;82656;-64
2021/12/11 07:10:42;;;;;;;;;;;5.50;83.80;;;;;;5045381;28;82196;-63
2021/12/11 07:13:08;;;;;;;;;;;5.50;83.70;;;;;;5045488;28;82106;-64
2021/12/11 07:15:34;;;;;;;;;;;5.50;83.60;;;;;;5045566;28;84080;-64
2021/12/11 07:17:59;;;;;;;;;;;5.50;83.70;;;;;;5047120;28;84744;-66
2021/12/11 07:20:25;;;;;;;;;;;5.50;83.60;;;;;;5045668;28;82966;-63
2021/12/11 07:22:51;;;;;;;;;;;5.50;83.50;;;;;;5042515;28;83707;-63
2021/12/11 07:25:18;;;;;;;;;;;5.50;83.70;;;;;;5040764;28;83990;-63
2021/12/11 07:27:44;;;;;;;;;;;5.50;83.60;;;;;;5042053;28;83585;-63
2021/12/11 07:30:10;;;;;;;;;;;5.50;83.60;;;;;;5039553;28;83036;-63
2021/12/11 07:32:35;;;;;;;;;;;5.50;83.60;;;;;;5041447;28;83074;-63
2021/12/11 07:35:01;;;;;;;;;;;5.50;83.80;;;;;;5042804;28;81922;-63
2021/12/11 07:37:27;;;;;;;;;;;5.50;83.50;;;;;;5043601;28;82198;-63
2021/12/11 07:39:52;;;;;;;;;;;5.50;83.50;;;;;;5047101;28;82477;-63
2021/12/11 07:42:18;;;;;;;;;;;5.50;83.50;;;;;;5043861;28;83045;-64
2021/12/11 07:44:43;;;;;;;;;;;5.50;83.50;;;;;;5041321;28;83846;-64
2021/12/11 07:47:09;;;;;;;;;;;5.50;83.70;;;;;;5041243;28;82777;-64
2021/12/11 07:49:35;;;;;;;;;;;5.50;83.90;;;;;;5042656;28;82074;-64
2021/12/11 07:52:00;;;;;;;;;;;5.50;83.60;;;;;;5043011;28;82079;-64
2021/12/11 07:54:26;;;;;;;;;;;5.50;83.80;;;;;;5043544;28;82482;-63
2021/12/11 07:56:53;;;;;;;;;;;5.50;83.70;;;;;;5043844;28;82165;-64
2021/12/11 07:59:19;;;;;;;;;;;5.50;83.50;;;;;;5045656;28;83435;-64
2021/12/11 08:01:46;;;;;;;;;;;5.50;83.30;;;;;;5044070;28;82101;-64
2021/12/11 08:04:12;;;;;;;;;;;5.50;83.70;;;;;;5043318;28;82442;-64
2021/12/11 08:06:38;;;;;;;;;;;5.50;83.60;;;;;;5042954;28;83696;-64
2021/12/11 08:09:05;;;;;;;;;;;5.50;83.60;;;;;;5044388;28;82105;-64
2021/12/11 08:11:31;;;;;;;;;;;5.50;83.80;;;;;;5042788;28;82116;-64
2021/12/11 08:13:58;;;;;;;;;;;5.50;83.60;;;;;;5042465;28;83134;-64
2021/12/11 08:16:31;;;;;;;;;;;5.50;83.70;;;;;;5042288;28;82138;-64
2021/12/11 08:18:56;;;;;;;;;;;5.50;83.40;;;;;;5040144;28;82861;-64
2021/12/11 08:21:22;;;;;;;;;;;5.50;83.70;;;;;;5044019;28;82404;-64
2021/12/11 08:23:53;;;;;;;;;;;5.50;83.60;;;;;;5042974;28;81712;-64
2021/12/11 08:26:20;;;;;;;;;;;5.50;83.60;;;;;;5042658;28;83138;-64
2021/12/11 08:28:48;;;;;;;;;;;5.50;83.70;;;;;;5040837;28;82101;-64
2021/12/11 08:31:14;;;;;;;;;;;5.50;83.90;;;;;;5039929;27;83977;-64
2021/12/11 08:33:40;;;;;;;;;;;5.50;84.00;;;;;;5040059;28;83931;-64
2021/12/11 08:36:06;;;;;;;;;;;5.50;83.90;;;;;;5041086;28;82214;-64
2021/12/11 08:38:32;;;;;;;;;;;5.50;83.90;;;;;;5040587;28;82178;-64
2021/12/11 08:40:59;;;;;;;;;;;5.50;84.10;;;;;;5040709;28;83215;-64
2021/12/11 08:43:25;;;;;;;;;;;5.40;84.20;;;;;;5042810;28;82224;-64
2021/12/11 08:46:35;;;;;;;;;;;5.40;84.40;;;;;;5040877;28;83204;-64
2021/12/11 08:48:43;;;;;;;;;;;5.40;84.30;;;;;;5036710;27;81387;-64
2021/12/11 08:51:11;;;;;;;;;;;5.40;84.20;;;;;;5040394;28;82115;-64
2021/12/11 08:53:37;;;;;;;;;;;5.40;84.80;;;;;;5042200;28;83177;-64
2021/12/11 08:56:04;;;;;;;;;;;5.40;84.50;;;;;;5039842;28;84051;-64
2021/12/11 08:58:30;;;;;;;;;;;5.40;84.50;;;;;;5041953;28;82983;-64
2021/12/11 09:01:03;;;;;;;;;;;5.40;84.50;;;;;;5039559;28;83102;-64
2021/12/11 09:03:35;;;;;;;;;;;5.40;84.40;;;;;;5044128;28;82114;-65
2021/12/11 09:06:09;;;;;;;;;;;5.50;84.40;;;;;;5045851;28;82702;-64
2021/12/11 09:08:37;;;;;;;;;;;5.40;84.40;;;;;;5039976;28;82091;-64
2021/12/11 09:11:06;;;;;;;;;;;5.40;84.30;;;;;;5044235;28;82540;-64
2021/12/11 09:13:35;;;;;;;;;;;5.50;84.10;;;;;;5041358;28;83422;-64
2021/12/11 09:16:06;;;;;;;;;;;5.40;84.20;;;;;;5043647;28;83554;-64
2021/12/11 09:18:37;;;;;;;;;;;5.40;84.70;;;;;;5043829;28;83609;-65
2021/12/11 09:21:06;;;;;;;;;;;5.40;84.80;;;;;;5040276;28;84217;-65
2021/12/11 09:23:38;;;;;;;;;;;5.40;84.60;;;;;;5042429;28;82087;-65
2021/12/11 09:26:08;;;;;;;;;;;5.40;84.40;;;;;;5039739;28;82662;-65
2021/12/11 09:28:37;;;;;;;;;;;5.40;84.80;;;;;;5045092;28;82122;-65
2021/12/11 09:31:02;;;;;;;;;;;5.30;84.80;;;;;;5039382;28;82086;-64
2021/12/11 09:33:33;;;;;;;;;;;5.30;84.80;;;;;;5040028;28;83225;-64
2021/12/11 09:36:01;;;;;;;;;;;5.40;84.70;;;;;;5040767;28;82110;-65
2021/12/11 09:38:29;;;;;;;;;;;5.40;84.70;;;;;;5039390;28;85025;-65
2021/12/11 09:40:55;;;;;;;;;;;5.40;84.70;;;;;;5045084;27;83312;-65
2021/12/11 09:43:26;;;;;;;;;;;5.40;85.10;;;;;;5045779;28;82241;-64
2021/12/11 09:45:52;;;;;;;;;;;5.40;84.90;;;;;;5045252;28;84694;-65
2021/12/11 09:48:18;;;;;;;;;;;5.30;84.90;;;;;;5042864;28;83789;-65
2021/12/11 09:50:57;;;;;;;;;;;5.30;85.10;;;;;;5045743;28;82100;-65
2021/12/11 09:53:24;;;;;;;;;;;5.40;84.90;;;;;;5046696;28;83018;-65
2021/12/11 09:55:49;;;;;;;;;;;5.30;84.70;;;;;;5045835;28;82108;-65
2021/12/11 09:58:17;;;;;;;;;;;5.40;84.80;;;;;;5046532;28;82400;-65
2021/12/11 10:00:48;;;;;;;;;;;5.30;85.20;;;;;;5044909;28;83223;-64
2021/12/11 10:03:16;;;;;;;;;;;5.30;85.30;;;;;;5046063;28;81456;-65
2021/12/11 10:05:49;;;;;;;;;;;5.30;85.20;;;;;;5044394;28;82174;-65
2021/12/11 10:08:39;;;;;;;;;;;5.30;85.20;;;;;;5043086;28;83726;-64
2021/12/11 10:11:22;;;;;;;;;;;5.30;84.80;;;;;;5045262;28;83052;-65
2021/12/11 10:13:50;;;;;;;;;;;5.40;85.00;;;;;;5043944;28;83378;-65
2021/12/11 10:16:17;;;;;;;;;;;5.40;84.90;;;;;;5045763;27;82102;-65
2021/12/11 10:18:42;;;;;;;;;;;5.30;85.00;;;;;;5044964;28;82118;-65
2021/12/11 10:21:10;;;;;;;;;;;5.30;85.20;;;;;;5045819;28;82983;-65
2021/12/11 10:23:37;;;;;;;;;;;5.40;85.10;;;;;;5043724;28;82099;-65
2021/12/11 10:26:04;;;;;;;;;;;5.30;84.80;;;;;;5042986;28;82931;-65
2021/12/11 10:28:30;;;;;;;;;;;5.30;85.30;;;;;;5046286;28;83159;-65
2021/12/11 10:31:01;;;;;;;;;;;5.30;85.20;;;;;;5045538;28;82092;-65
2021/12/11 10:33:28;;;;;;;;;;;5.30;85.00;;;;;;5047763;28;82605;-65
2021/12/11 10:35:57;;;;;;;;;;;5.20;85.50;;;;;;5044180;28;83035;-65
2021/12/11 10:38:23;;;;;;;;;;;5.20;85.70;;;;;;5046156;28;84462;-65
2021/12/11 10:40:50;;;;;;;;;;;5.20;85.90;;;;;;5044211;28;83685;-65
2021/12/11 10:43:18;;;;;;;;;;;5.20;85.50;;;;;;5045651;28;82142;-64
2021/12/11 10:45:44;;;;;;;;;;;5.20;85.70;;;;;;5044396;28;82555;-64
2021/12/11 10:48:11;;;;;;;;;;;5.20;85.50;;;;;;5044775;28;82700;-64
2021/12/11 10:50:46;;;;;;;;;;;5.20;85.60;;;;;;5043387;27;82096;-64
2021/12/11 10:53:13;;;;;;;;;;;5.20;85.60;;;;;;5046278;28;82956;-64
2021/12/11 10:55:40;;;;;;;;;;;5.20;85.80;;;;;;5046209;28;83580;-65
2021/12/11 10:58:07;;;;;;;;;;;5.10;85.40;;;;;;5043585;28;82315;-64
2021/12/11 11:00:36;;;;;;;;;;;5.10;86.00;;;;;;5041029;28;84539;-64
2021/12/11 11:03:01;;;;;;;;;;;5.20;85.60;;;;;;5045692;28;82359;-64
2021/12/11 11:05:29;;;;;;;;;;;5.20;85.70;;;;;;5043789;28;83047;-65
2021/12/11 11:07:55;;;;;;;;;;;5.20;85.90;;;;;;5044958;28;83223;-65
2021/12/11 11:10:25;;;;;;;;;;;5.20;85.70;;;;;;5045507;28;82117;-65
2021/12/11 11:12:53;;;;;;;;;;;5.20;85.70;;;;;;5041862;28;82111;-65
2021/12/11 11:15:21;;;;;;;;;;;5.20;85.50;;;;;;5044355;28;83227;-65
2021/12/11 11:17:47;;;;;;;;;;;5.20;85.70;;;;;;5047627;28;81377;-64
2021/12/11 11:20:13;;;;;;;;;;;5.20;85.50;;;;;;5044762;28;83263;-65
2021/12/11 11:22:40;;;;;;;;;;;5.20;85.60;;;;;;5043349;28;82139;-64
2021/12/11 11:25:06;;;;;;;;;;;5.20;85.50;;;;;;5041999;28;85309;-65
2021/12/11 11:27:31;;;;;;;;;;;5.30;85.30;;;;;;5043609;28;83185;-65
2021/12/11 11:29:57;;;;;;;;;;;5.30;85.30;;;;;;5045019;28;82079;-65
2021/12/11 11:32:31;;;;;;;;;;;5.30;85.30;;;;;;5044541;28;82802;-65
2021/12/11 11:35:06;;;;;;;;;;;5.30;85.30;;;;;;5042511;28;82441;-65
2021/12/11 11:37:35;;;;;;;;;;;5.30;85.20;;;;;;5044894;28;82110;-65
2021/12/11 11:40:03;;;;;;;;;;;5.40;85.20;;;;;;5043721;28;83724;-65
2021/12/11 11:42:29;;;;;;;;;;;5.40;85.10;;;;;;5045476;28;82967;-64
2021/12/11 11:44:55;;;;;;;;;;;5.40;85.20;;;;;;5041729;28;83060;-64
2021/12/11 11:47:20;;;;;;;;;;;5.40;85.10;;;;;;5040534;28;84322;-65
2021/12/11 11:49:56;;;;;;;;;;;5.40;85.10;;;;;;5042623;28;84381;-64
2021/12/11 11:52:22;;;;;;;;;;;5.40;85.10;;;;;;5041432;28;84160;-65
2021/12/11 11:54:49;;;;;;;;;;;5.40;85.20;;;;;;5043753;28;83038;-65
2021/12/11 11:57:17;;;;;;;;;;;5.40;85.30;;;;;;5042280;28;82225;-64
2021/12/11 11:59:43;;;;;;;;;;;5.40;85.40;;;;;;5040503;28;82231;-64
2021/12/11 12:02:11;;;;;;;;;;;5.40;85.20;;;;;;5043437;28;82218;-65
2021/12/11 12:04:38;;;;;;;;;;;5.40;85.10;;;;;;5044608;28;82145;-65
2021/12/11 12:07:05;;;;;;;;;;;5.40;85.20;;;;;;5045276;28;82468;-65
2021/12/11 12:09:32;;;;;;;;;;;5.40;85.20;;;;;;5043814;28;82254;-65
2021/12/11 12:11:58;;;;;;;;;;;5.40;85.40;;;;;;5042619;28;82109;-65
2021/12/11 12:14:27;;;;;;;;;;;5.40;85.40;;;;;;5042817;28;84102;-65
2021/12/11 12:16:53;;;;;;;;;;;5.40;85.40;;;;;;5040229;28;82047;-65
2021/12/11 12:19:20;;;;;;;;;;;5.40;85.80;;;;;;5041033;28;82186;-65
2021/12/11 12:21:47;;;;;;;;;;;5.40;85.30;;;;;;5042353;28;84404;-65
2021/12/11 12:24:13;;;;;;;;;;;5.40;85.40;;;;;;5044469;28;82815;-65
2021/12/11 12:26:39;;;;;;;;;;;5.40;85.10;;;;;;5043701;27;82555;-65
2021/12/11 12:29:06;;;;;;;;;;;5.40;85.00;;;;;;5043592;28;82150;-65
2021/12/11 12:31:34;;;;;;;;;;;5.40;85.40;;;;;;5042621;28;82639;-65
2021/12/11 12:34:00;;;;;;;;;;;5.40;85.30;;;;;;5040228;28;85136;-65
2021/12/11 12:36:26;;;;;;;;;;;5.40;85.20;;;;;;5040071;28;82094;-65
2021/12/11 12:38:52;;;;;;;;;;;5.40;85.50;;;;;;5039986;28;83092;-65
2021/12/11 12:41:20;;;;;;;;;;;5.40;85.20;;;;;;5041127;28;82991;-65
2021/12/11 12:46:17;;;;;;;;;;;5.40;85.20;;;;;;5041297;28;82814;-65
2021/12/11 12:48:42;;;;;;;;;;;5.40;85.20;;;;;;5041159;28;82923;-65
2021/12/11 12:51:10;;;;;;;;;;;5.40;85.20;;;;;;5040084;28;82399;-65
2021/12/11 12:53:36;;;;;;;;;;;5.40;85.20;;;;;;5042366;28;84262;-65
2021/12/11 12:56:04;;;;;;;;;;;5.40;85.30;;;;;;5043444;28;82827;-65
2021/12/11 12:58:31;;;;;;;;;;;5.40;85.50;;;;;;5043727;28;82091;-65
2021/12/11 13:01:02;;;;;;;;;;;5.40;85.40;;;;;;5042404;28;82804;-65
2021/12/11 13:03:31;;;;;;;;;;;5.40;85.30;;;;;;5042166;28;83056;-65
2021/12/11 13:06:09;;;;;;;;;;;5.40;85.40;;;;;;5042903;28;83096;-65
2021/12/11 13:08:38;;;;;;;;;;;5.40;85.20;;;;;;5043416;28;82136;-65
2021/12/11 13:11:06;;;;;;;;;;;5.40;85.30;;;;;;5039967;28;83128;-65
2021/12/11 13:13:32;;;;;;;;;;;5.40;85.50;;;;;;5041867;27;82213;-64
2021/12/11 13:16:03;;;;;;;;;;;5.40;85.40;;;;;;5046231;28;82195;-64
2021/12/11 13:18:31;;;;;;;;;;;5.40;85.10;;;;;;5044918;28;83589;-68
2021/12/11 13:21:08;;;;;;;;;;;5.40;85.60;;;;;;5044636;28;81481;-66
2021/12/11 13:23:35;;;;;;;;;;;5.40;85.40;;;;;;5043442;28;82099;-65
2021/12/11 13:26:02;;;;;;;;;;;5.40;85.50;;;;;;5047838;28;82185;-65
2021/12/11 13:28:30;;;;;;;;;;;5.40;85.40;;;;;;5048777;28;84028;-65
2021/12/11 13:31:09;;;;;;;;;;;5.40;85.20;;;;;;5044873;28;83466;-65
2021/12/11 13:33:35;;;;;;;;;;;5.40;85.50;;;;;;5046772;28;83181;-65
2021/12/11 13:36:01;;;;;;;;;;;5.40;85.50;;;;;;5046697;28;83062;-66
2021/12/11 13:38:29;;;;;;;;;;;5.40;85.60;;;;;;5044391;28;83829;-65
2021/12/11 13:41:01;;;;;;;;;;;5.40;85.50;;;;;;5046296;28;82125;-65
2021/12/11 13:43:27;;;;;;;;;;;5.40;85.50;;;;;;5046692;28;82144;-66
2021/12/11 13:45:53;;;;;;;;;;;5.40;85.80;;;;;;5047283;28;81491;-65
2021/12/11 13:48:20;;;;;;;;;;;5.40;85.50;;;;;;5046820;28;82386;-65
2021/12/11 13:50:51;;;;;;;;;;;5.40;85.80;;;;;;5049123;28;82114;-65
2021/12/11 13:53:17;;;;;;;;;;;5.40;85.50;;;;;;5044216;28;84261;-65
2021/12/11 13:55:42;;;;;;;;;;;5.40;85.50;;;;;;5044456;28;82118;-65
2021/12/11 13:58:09;;;;;;;;;;;5.40;85.50;;;;;;5044870;28;82449;-65
2021/12/11 14:00:37;;;;;;;;;;;5.40;85.70;;;;;;5044445;28;83145;-65
2021/12/11 14:03:03;;;;;;;;;;;5.40;85.70;;;;;;5042189;28;82121;-65
2021/12/11 14:05:32;;;;;;;;;;;5.40;85.50;;;;;;5043540;28;83235;-65
2021/12/11 14:07:58;;;;;;;;;;;5.40;85.60;;;;;;5043799;28;84525;-65
2021/12/11 14:10:32;;;;;;;;;;;5.40;85.70;;;;;;5045136;28;81360;-66
2021/12/11 14:12:59;;;;;;;;;;;5.40;85.90;;;;;;5046587;28;83766;-65
2021/12/11 14:15:25;;;;;;;;;;;5.40;85.90;;;;;;5045597;27;82156;-65
2021/12/11 14:17:51;;;;;;;;;;;5.40;85.70;;;;;;5043753;28;83030;-65
2021/12/11 14:20:18;;;;;;;;;;;5.40;85.70;;;;;;5042537;28;83508;-65
2021/12/11 14:22:44;;;;;;;;;;;5.40;85.80;;;;;;5045887;28;83668;-65
2021/12/11 14:25:11;;;;;;;;;;;5.40;85.90;;;;;;5045626;28;82215;-65
2021/12/11 14:27:37;;;;;;;;;;;5.40;85.80;;;;;;5045408;28;82313;-66
2021/12/11 14:30:04;;;;;;;;;;;5.40;85.90;;;;;;5046545;28;83367;-65
2021/12/11 14:32:34;;;;;;;;;;;5.40;85.60;;;;;;5048295;28;82120;-65
2021/12/11 14:35:01;;;;;;;;;;;5.40;85.90;;;;;;5045915;28;81403;-65
2021/12/11 14:37:27;;;;;;;;;;;5.40;85.60;;;;;;5043297;28;82089;-65
2021/12/11 14:39:52;;;;;;;;;;;5.40;85.90;;;;;;5042533;28;82164;-65
2021/12/11 14:42:20;;;;;;;;;;;5.40;85.80;;;;;;5043254;28;83085;-66
2021/12/11 14:44:46;;;;;;;;;;;5.40;86.10;;;;;;5042595;28;83704;-65
2021/12/11 14:47:12;;;;;;;;;;;5.40;86.10;;;;;;5042258;28;82893;-65
2021/12/11 14:49:39;;;;;;;;;;;5.30;85.90;;;;;;5042828;28;82139;-65
2021/12/11 14:52:05;;;;;;;;;;;5.40;86.30;;;;;;5042769;28;82347;-65